createdAt,value
2023-02-22T00:01:08.390Z,13.94
2023-02-22T00:03:36.278Z,13.96
2023-02-22T00:06:06.435Z,13.90
2023-02-22T00:08:36.791Z,14.14
2023-02-22T00:11:08.973Z,14.15
2023-02-22T00:13:38.745Z,13.97
2023-02-22T00:16:07.405Z,14.06
2023-02-22T00:18:36.041Z,14.07
2023-02-22T00:21:10.799Z,14.12
2023-02-22T00:23:46.679Z,13.94
2023-02-22T00:26:21.331Z,13.89
2023-02-22T00:28:51.959Z,13.89
2023-02-22T00:31:21.244Z,13.79
2023-02-22T00:33:50.818Z,13.97
2023-02-22T00:36:19.059Z,14.00
2023-02-22T00:38:46.976Z,13.93
2023-02-22T00:41:16.825Z,14.06
2023-02-22T00:43:45.111Z,14.09
2023-02-22T00:46:14.278Z,13.95
2023-02-22T00:48:42.173Z,14.05
2023-02-22T00:51:10.475Z,14.04
2023-02-22T00:53:38.352Z,14.01
2023-02-22T00:56:07.453Z,13.97
2023-02-22T00:58:35.420Z,14.04
2023-02-22T01:01:03.808Z,13.96
2023-02-22T01:03:32.532Z,14.20
2023-02-22T01:06:00.901Z,14.32
2023-02-22T01:08:31.542Z,14.20
2023-02-22T01:11:00.152Z,14.08
2023-02-22T01:13:28.244Z,14.11
2023-02-22T01:16:17.329Z,14.19
2023-02-22T01:18:45.437Z,14.03
2023-02-22T01:21:14.063Z,14.26
2023-02-22T01:23:45.414Z,14.13
2023-02-22T01:26:13.887Z,13.80
2023-02-22T01:28:41.866Z,13.77
2023-02-22T01:31:11.013Z,13.88
2023-02-22T01:33:41.844Z,13.84
2023-02-22T01:36:11.706Z,13.74
2023-02-22T01:38:39.854Z,13.65
2023-02-22T01:41:08.621Z,13.56
2023-02-22T01:43:38.290Z,13.62
2023-02-22T01:46:21.907Z,13.57
2023-02-22T01:49:01.172Z,13.78
2023-02-22T01:51:44.347Z,13.62
2023-02-22T01:54:46.598Z,13.76
2023-02-22T01:57:32.444Z,13.56
2023-02-22T02:00:24.825Z,13.67
2023-02-22T02:03:01.476Z,13.52
2023-02-22T02:05:31.883Z,13.53
2023-02-22T02:08:13.475Z,13.56
2023-02-22T02:10:44.664Z,13.68
2023-02-22T02:13:13.279Z,13.50
2023-02-22T02:15:41.270Z,13.54
2023-02-22T02:18:12.717Z,13.40
2023-02-22T02:20:59.357Z,13.30
2023-02-22T02:24:02.529Z,13.37
2023-02-22T02:26:51.988Z,13.33
2023-02-22T02:29:59.603Z,13.25
2023-02-22T02:32:33.709Z,13.37
2023-02-22T02:35:05.278Z,13.30
2023-02-22T02:37:54.327Z,13.27
2023-02-22T02:40:39.723Z,13.40
2023-02-22T02:43:32.448Z,13.67
2023-02-22T02:46:12.833Z,13.57
2023-02-22T02:48:50.658Z,13.66
2023-02-22T02:51:22.583Z,13.64
2023-02-22T02:53:52.877Z,13.54
2023-02-22T02:56:23.548Z,13.60
2023-02-22T02:58:53.534Z,13.44
2023-02-22T03:01:49.118Z,13.59
2023-02-22T03:04:40.342Z,13.85
2023-02-22T03:07:35.121Z,13.78
2023-02-22T03:10:44.544Z,13.62
2023-02-22T03:13:31.104Z,13.55
2023-02-22T03:16:27.415Z,13.46
2023-02-22T03:19:33.379Z,13.47
2023-02-22T03:22:19.080Z,13.41
2023-02-22T03:24:53.333Z,13.62
2023-02-22T03:27:34.539Z,13.54
2023-02-22T03:30:12.995Z,13.55
2023-02-22T03:32:46.441Z,13.54
2023-02-22T03:35:30.742Z,13.51
2023-02-22T03:38:04.185Z,13.36
2023-02-22T03:40:37.047Z,13.36
2023-02-22T03:43:09.633Z,13.34
2023-02-22T03:45:45.586Z,13.54
2023-02-22T03:48:29.922Z,13.56
2023-02-22T03:51:04.981Z,13.55
2023-02-22T03:53:37.677Z,13.59
2023-02-22T03:56:14.013Z,13.35
2023-02-22T03:58:48.364Z,13.31
2023-02-22T04:01:17.552Z,13.18
2023-02-22T04:03:46.236Z,13.22
2023-02-22T04:06:15.110Z,13.18
2023-02-22T04:08:44.519Z,13.40
2023-02-22T04:11:13.572Z,13.30
2023-02-22T04:13:42.751Z,13.26
2023-02-22T04:16:11.312Z,13.35
2023-02-22T04:18:40.668Z,13.26
2023-02-22T04:21:09.515Z,13.39
2023-02-22T04:23:42.275Z,13.21
2023-02-22T04:26:10.622Z,13.28
2023-02-22T04:28:39.431Z,13.22
2023-02-22T04:31:23.841Z,13.21
2023-02-22T04:33:53.602Z,13.15
2023-02-22T04:36:27.432Z,12.97
2023-02-22T04:38:55.501Z,13.19
2023-02-22T04:41:25.586Z,13.01
2023-02-22T04:43:54.231Z,13.17
2023-02-22T04:46:25.049Z,13.13
2023-02-22T04:48:54.761Z,12.86
2023-02-22T04:51:26.566Z,12.96
2023-02-22T04:54:01.143Z,12.92
2023-02-22T04:56:30.956Z,12.87
2023-02-22T04:58:58.872Z,12.89
2023-02-22T05:01:32.230Z,12.90
2023-02-22T05:04:03.303Z,12.76
2023-02-22T05:06:31.513Z,12.92
2023-02-22T05:08:59.618Z,12.80
2023-02-22T05:11:28.074Z,12.86
2023-02-22T05:13:56.250Z,12.87
2023-02-22T05:16:24.678Z,13.06
2023-02-22T05:18:52.570Z,13.02
2023-02-22T05:21:20.907Z,13.08
2023-02-22T05:23:49.113Z,13.24
2023-02-22T05:26:17.445Z,13.20
2023-02-22T05:28:45.563Z,13.31
2023-02-22T05:31:13.807Z,13.02
2023-02-22T05:33:41.833Z,12.74
2023-02-22T05:36:10.327Z,12.85
2023-02-22T05:38:43.650Z,13.06
2023-02-22T05:41:13.893Z,13.03
2023-02-22T05:43:42.436Z,13.15
2023-02-22T05:46:11.404Z,13.14
2023-02-22T05:48:39.392Z,13.05
2023-02-22T05:51:07.902Z,13.04
2023-02-22T05:53:36.075Z,13.13
2023-02-22T05:56:04.937Z,12.94
2023-02-22T05:58:32.934Z,12.97
2023-02-22T06:01:03.005Z,12.91
2023-02-22T06:03:31.324Z,13.16
2023-02-22T06:05:59.774Z,13.04
2023-02-22T06:08:27.741Z,12.92
2023-02-22T06:10:56.087Z,12.84
2023-02-22T06:13:24.013Z,12.88
2023-02-22T06:15:52.389Z,13.12
2023-02-22T06:18:20.378Z,13.04
2023-02-22T06:20:48.697Z,13.22
2023-02-22T06:23:16.722Z,12.92
2023-02-22T06:25:45.032Z,13.03
2023-02-22T06:28:13.007Z,13.02
2023-02-22T06:30:43.429Z,13.07
2023-02-22T06:33:12.128Z,13.08
2023-02-22T06:35:40.537Z,12.94
2023-02-22T06:38:08.848Z,13.04
2023-02-22T06:40:37.476Z,13.12
2023-02-22T06:43:05.530Z,13.29
2023-02-22T06:45:33.918Z,13.31
2023-02-22T06:48:01.802Z,13.28
2023-02-22T06:50:31.434Z,13.27
2023-02-22T06:52:59.536Z,13.12
2023-02-22T06:55:30.748Z,12.96
2023-02-22T06:57:59.725Z,13.21
2023-02-22T07:00:30.475Z,13.09
2023-02-22T07:02:59.705Z,13.16
2023-02-22T07:05:29.057Z,12.96
2023-02-22T07:08:05.203Z,13.12
2023-02-22T07:10:35.330Z,13.01
2023-02-22T07:13:05.183Z,13.12
2023-02-22T07:15:35.340Z,13.09
2023-02-22T07:18:03.430Z,13.21
2023-02-22T07:20:33.130Z,13.26
2023-02-22T07:23:01.482Z,13.08
2023-02-22T07:25:29.847Z,13.23
2023-02-22T07:27:58.129Z,13.35
2023-02-22T07:30:34.266Z,13.26
2023-02-22T07:33:05.124Z,13.20
2023-02-22T07:35:38.900Z,13.43
2023-02-22T07:38:11.125Z,13.38
2023-02-22T07:40:39.970Z,13.34
2023-02-22T07:43:22.879Z,13.39
2023-02-22T07:45:53.253Z,13.40
2023-02-22T07:48:23.950Z,13.31
2023-02-22T07:50:52.662Z,13.66
2023-02-22T07:53:33.697Z,13.56
2023-02-22T07:56:05.517Z,13.28
2023-02-22T07:58:33.766Z,13.01
2023-02-22T08:01:05.282Z,12.98
2023-02-22T08:03:36.965Z,13.23
2023-02-22T08:06:07.294Z,12.86
2023-02-22T08:08:35.373Z,13.05
2023-02-22T08:11:03.885Z,13.21
2023-02-22T08:13:33.009Z,13.29
2023-02-22T08:16:01.312Z,13.09
2023-02-22T08:18:29.277Z,13.28
2023-02-22T08:20:57.678Z,13.38
2023-02-22T08:23:27.277Z,13.20
2023-02-22T08:25:56.275Z,13.12
2023-02-22T08:28:25.164Z,13.42
2023-02-22T08:30:54.161Z,13.34
2023-02-22T08:33:22.557Z,13.33
2023-02-22T08:35:51.974Z,13.69
2023-02-22T08:38:31.568Z,13.62
2023-02-22T08:40:59.919Z,13.71
2023-02-22T08:43:28.690Z,13.90
2023-02-22T08:45:57.913Z,14.02
2023-02-22T08:48:26.095Z,14.21
2023-02-22T08:50:55.091Z,13.88
2023-02-22T08:53:23.274Z,13.90
2023-02-22T08:55:51.704Z,13.71
2023-02-22T08:58:19.917Z,13.92
2023-02-22T09:00:48.454Z,13.92
2023-02-22T09:03:16.611Z,13.69
2023-02-22T09:05:45.336Z,13.94
2023-02-22T09:08:13.471Z,13.85
2023-02-22T09:10:41.924Z,14.21
2023-02-22T09:13:09.876Z,14.05
2023-02-22T09:15:40.213Z,14.05
2023-02-22T09:18:09.712Z,14.51
2023-02-22T09:20:38.280Z,14.72
2023-02-22T09:23:09.973Z,14.77
2023-02-22T09:25:41.066Z,14.79
2023-02-22T09:28:09.490Z,14.86
2023-02-22T09:30:38.100Z,14.61
2023-02-22T09:33:10.331Z,14.76
2023-02-22T09:35:42.824Z,14.77
2023-02-22T09:38:11.901Z,14.89
2023-02-22T09:40:48.121Z,15.13
2023-02-22T09:43:27.702Z,15.13
2023-02-22T09:46:19.908Z,15.51
2023-02-22T09:48:53.892Z,15.61
2023-02-22T09:51:26.934Z,15.41
2023-02-22T09:54:00.567Z,15.55
2023-02-22T09:56:31.556Z,15.35
2023-02-22T09:59:04.274Z,15.73
2023-02-22T10:01:43.616Z,15.22
2023-02-22T10:04:19.640Z,15.76
2023-02-22T10:07:29.544Z,16.38
2023-02-22T10:09:59.123Z,15.74
2023-02-22T10:13:02.894Z,16.35
2023-02-22T10:15:42.689Z,15.83
2023-02-22T10:18:44.852Z,15.89
2023-02-22T10:21:24.593Z,16.20
2023-02-22T10:24:30.203Z,16.66
2023-02-22T10:26:59.956Z,17.00
2023-02-22T10:29:48.128Z,16.12
2023-02-22T10:32:22.203Z,16.20
2023-02-22T10:34:51.794Z,16.00
2023-02-22T10:37:34.345Z,16.20
2023-02-22T10:40:14.290Z,16.76
2023-02-22T10:42:42.920Z,16.94
2023-02-22T10:45:37.809Z,16.53
2023-02-22T10:48:09.749Z,16.94
2023-02-22T10:50:41.979Z,17.79
2023-02-22T10:53:11.377Z,17.40
2023-02-22T10:56:25.195Z,17.93
2023-02-22T10:59:00.053Z,17.85
2023-02-22T11:01:31.338Z,16.85
2023-02-22T11:04:05.028Z,17.10
2023-02-22T11:06:35.132Z,16.81
2023-02-22T11:09:29.449Z,17.80
2023-02-22T11:12:22.200Z,18.11
2023-02-22T11:14:50.252Z,17.01
2023-02-22T11:17:30.781Z,17.05
2023-02-22T11:19:59.912Z,17.00
2023-02-22T11:22:42.958Z,17.42
2023-02-22T11:25:22.148Z,17.95
2023-02-22T11:27:52.351Z,17.34
2023-02-22T11:30:27.719Z,17.11
2023-02-22T11:33:23.769Z,18.07
2023-02-22T11:36:04.967Z,17.65
2023-02-22T11:38:38.097Z,17.17
2023-02-22T11:41:43.580Z,16.54
2023-02-22T11:44:27.886Z,16.67
2023-02-22T11:47:07.200Z,17.12
2023-02-22T11:49:42.945Z,16.86
2023-02-22T11:52:27.184Z,16.72
2023-02-22T11:54:58.293Z,16.74
2023-02-22T11:57:48.063Z,16.59
2023-02-22T12:00:43.724Z,16.68
2023-02-22T12:03:23.914Z,15.87
2023-02-22T12:06:40.864Z,16.13
2023-02-22T12:09:33.349Z,16.74
2023-02-22T12:12:10.752Z,16.42
2023-02-22T12:14:47.912Z,17.15
2023-02-22T12:17:25.574Z,17.32
2023-02-22T12:20:07.310Z,16.68
2023-02-22T12:22:48.063Z,16.95
2023-02-22T12:25:16.042Z,17.45
2023-02-22T12:28:24.829Z,16.93
2023-02-22T12:31:02.032Z,16.48
2023-02-22T12:33:54.716Z,17.17
2023-02-22T12:36:29.284Z,16.92
2023-02-22T12:39:07.478Z,16.97
2023-02-22T12:42:02.330Z,17.69
2023-02-22T12:44:38.822Z,17.42
2023-02-22T12:47:09.385Z,16.74
2023-02-22T12:49:49.894Z,16.55
2023-02-22T12:52:32.882Z,16.54
2023-02-22T12:55:29.230Z,16.67
2023-02-22T12:58:01.471Z,17.13
2023-02-22T13:01:12.531Z,16.97
2023-02-22T13:03:44.254Z,17.05
2023-02-22T13:06:36.932Z,16.63
2023-02-22T13:09:44.739Z,16.41
2023-02-22T13:12:36.023Z,16.46
2023-02-22T13:15:39.501Z,16.70
2023-02-22T13:18:15.172Z,16.52
2023-02-22T13:20:53.797Z,16.06
2023-02-22T13:23:36.272Z,16.35
2023-02-22T13:26:25.243Z,15.98
2023-02-22T13:28:57.395Z,16.06
2023-02-22T13:31:39.936Z,16.30
2023-02-22T13:34:16.730Z,16.71
2023-02-22T13:36:58.685Z,15.70
2023-02-22T13:40:17.091Z,16.01
2023-02-22T13:42:51.248Z,16.38
2023-02-22T13:45:40.814Z,15.81
2023-02-22T13:48:23.374Z,16.31
2023-02-22T13:51:19.044Z,16.14
2023-02-22T13:54:03.899Z,15.91
2023-02-22T13:56:33.364Z,16.08
2023-02-22T13:59:05.071Z,16.19
2023-02-22T14:01:45.925Z,16.16
2023-02-22T14:04:37.623Z,15.90
2023-02-22T14:07:25.858Z,15.95
2023-02-22T14:09:56.790Z,16.08
2023-02-22T14:12:31.430Z,16.15
2023-02-22T14:15:28.680Z,15.87
2023-02-22T14:18:02.243Z,16.15
2023-02-22T14:20:37.179Z,16.42
2023-02-22T14:23:30.267Z,16.46
2023-02-22T14:26:29.432Z,16.41
2023-02-22T14:29:03.003Z,16.26
2023-02-22T14:31:52.112Z,16.36
2023-02-22T14:34:42.239Z,16.20
2023-02-22T14:37:18.948Z,15.62
2023-02-22T14:39:53.712Z,16.11
2023-02-22T14:42:27.808Z,16.20
2023-02-22T14:45:09.798Z,16.14
2023-02-22T14:47:49.774Z,16.20
2023-02-22T14:50:24.220Z,16.48
2023-02-22T14:53:25.689Z,15.88
2023-02-22T14:56:04.638Z,15.88
2023-02-22T14:58:51.650Z,16.10
2023-02-22T15:01:47.496Z,16.41
2023-02-22T15:04:23.692Z,16.33
2023-02-22T15:06:53.738Z,16.33
2023-02-22T15:09:27.818Z,15.99
2023-02-22T15:12:03.590Z,15.92
2023-02-22T15:14:37.902Z,16.06
2023-02-22T15:17:22.897Z,16.16
2023-02-22T15:19:51.691Z,16.24
2023-02-22T15:22:35.628Z,16.25
2023-02-22T15:25:08.468Z,16.28
2023-02-22T15:27:38.046Z,16.20
2023-02-22T15:30:17.046Z,16.38
2023-02-22T15:33:02.746Z,16.23
2023-02-22T15:35:33.814Z,16.15
2023-02-22T15:38:06.955Z,16.04
2023-02-22T15:40:36.309Z,16.09
2023-02-22T15:43:09.138Z,15.92
2023-02-22T15:45:43.248Z,16.03
2023-02-22T15:48:12.481Z,16.06
2023-02-22T15:50:40.620Z,16.24
2023-02-22T15:53:31.557Z,16.59
2023-02-22T15:56:03.748Z,16.29
2023-02-22T15:58:32.270Z,16.31
2023-02-22T16:01:03.343Z,16.38
2023-02-22T16:03:47.346Z,16.65
2023-02-22T16:06:40.729Z,16.59
2023-02-22T16:09:09.220Z,16.72
2023-02-22T16:11:43.429Z,16.70
2023-02-22T16:14:36.565Z,16.53
2023-02-22T16:17:29.080Z,16.55
2023-02-22T16:20:21.660Z,16.42
2023-02-22T16:22:50.192Z,16.65
2023-02-22T16:25:18.420Z,16.59
2023-02-22T16:28:06.406Z,16.49
2023-02-22T16:30:37.422Z,16.08
2023-02-22T16:33:13.848Z,15.81
2023-02-22T16:35:52.239Z,15.69
2023-02-22T16:38:21.366Z,15.56
2023-02-22T16:40:55.395Z,15.28
2023-02-22T16:43:24.842Z,15.77
2023-02-22T16:45:53.418Z,15.78
2023-02-22T16:48:24.598Z,15.61
2023-02-22T16:50:56.037Z,15.88
2023-02-22T16:53:26.523Z,15.99
2023-02-22T16:56:00.647Z,16.00
2023-02-22T16:58:28.892Z,16.03
2023-02-22T17:00:57.878Z,15.89
2023-02-22T17:03:27.162Z,15.94
2023-02-22T17:05:55.745Z,15.77
2023-02-22T17:08:24.287Z,15.78
2023-02-22T17:10:57.162Z,15.59
2023-02-22T17:13:29.441Z,15.58
2023-02-22T17:15:58.201Z,15.63
2023-02-22T17:18:29.127Z,15.55
2023-02-22T17:20:57.536Z,15.63
2023-02-22T17:23:28.025Z,15.43
2023-02-22T17:26:02.477Z,15.59
2023-02-22T17:28:31.797Z,15.57
2023-02-22T17:31:02.088Z,15.48
2023-02-22T17:33:34.641Z,15.41
2023-02-22T17:36:05.200Z,15.23
2023-02-22T17:38:34.771Z,15.51
2023-02-22T17:41:03.917Z,15.24
2023-02-22T17:43:31.992Z,15.14
2023-02-22T17:46:00.690Z,15.11
2023-02-22T17:48:28.776Z,15.19
2023-02-22T17:50:57.342Z,15.24
2023-02-22T17:53:25.693Z,15.34
2023-02-22T17:55:54.459Z,15.44
2023-02-22T17:58:24.085Z,15.41
2023-02-22T18:00:59.397Z,15.33
2023-02-22T18:03:27.713Z,15.27
2023-02-22T18:05:59.026Z,15.29
2023-02-22T18:08:32.329Z,15.21
2023-02-22T18:11:05.671Z,15.04
2023-02-22T18:13:33.676Z,14.97
2023-02-22T18:16:05.300Z,15.01
2023-02-22T18:18:33.494Z,15.19
2023-02-22T18:21:02.581Z,15.10
2023-02-22T18:23:32.431Z,15.09
2023-02-22T18:26:11.025Z,15.12
2023-02-22T18:28:40.313Z,14.98
2023-02-22T18:31:15.104Z,14.96
2023-02-22T18:33:44.964Z,14.47
2023-02-22T18:36:14.627Z,14.60
2023-02-22T18:38:43.967Z,14.29
2023-02-22T18:41:15.138Z,14.40
2023-02-22T18:43:43.731Z,14.33
2023-02-22T18:46:23.660Z,13.71
2023-02-22T18:48:56.519Z,14.03
2023-02-22T18:51:26.486Z,13.69
2023-02-22T18:54:00.856Z,13.60
2023-02-22T18:56:30.465Z,13.70
2023-02-22T18:59:01.417Z,13.45
2023-02-22T19:01:31.635Z,13.68
2023-02-22T19:04:00.916Z,13.60
2023-02-22T19:06:29.363Z,13.92
2023-02-22T19:09:01.504Z,13.83
2023-02-22T19:11:30.077Z,13.63
2023-02-22T19:13:58.313Z,13.48
2023-02-22T19:16:27.435Z,13.82
2023-02-22T19:18:59.326Z,13.94
2023-02-22T19:21:29.277Z,13.81
2023-02-22T19:24:06.921Z,13.89
2023-02-22T19:26:35.273Z,13.69
2023-02-22T19:29:08.659Z,13.33
2023-02-22T19:31:37.210Z,13.24
2023-02-22T19:34:09.292Z,13.23
2023-02-22T19:36:39.332Z,13.26
2023-02-22T19:39:08.678Z,13.41
2023-02-22T19:41:37.109Z,13.44
2023-02-22T19:44:05.819Z,13.32
2023-02-22T19:46:34.464Z,13.44
2023-02-22T19:49:03.344Z,13.46
2023-02-22T19:51:32.424Z,13.62
2023-02-22T19:54:13.126Z,13.52
2023-02-22T19:56:41.502Z,13.57
2023-02-22T19:59:14.542Z,13.82
2023-02-22T20:01:46.280Z,13.75
2023-02-22T20:04:18.712Z,13.81
2023-02-22T20:06:50.752Z,13.83
2023-02-22T20:09:21.564Z,13.86
2023-02-22T20:11:54.133Z,14.00
2023-02-22T20:14:25.043Z,13.70
2023-02-22T20:16:55.459Z,13.77
2023-02-22T20:19:24.623Z,13.93
2023-02-22T20:21:56.153Z,13.90
2023-02-22T20:24:25.612Z,13.75
2023-02-22T20:26:57.541Z,13.75
2023-02-22T20:29:32.361Z,13.83
2023-02-22T20:32:02.409Z,13.88
2023-02-22T20:34:34.419Z,13.93
2023-02-22T20:37:06.015Z,14.20
2023-02-22T20:39:35.459Z,14.03
2023-02-22T20:42:05.311Z,14.06
2023-02-22T20:44:34.838Z,14.10
2023-02-22T20:47:06.008Z,14.09
2023-02-22T20:49:35.504Z,14.01
2023-02-22T20:52:05.716Z,13.84
2023-02-22T20:54:36.449Z,13.82
2023-02-22T20:57:09.088Z,13.87
2023-02-22T20:59:38.388Z,13.93
2023-02-22T21:02:08.109Z,13.88
2023-02-22T21:04:37.601Z,13.91
2023-02-22T21:07:10.327Z,13.75
2023-02-22T21:09:40.126Z,13.74
2023-02-22T21:12:14.134Z,13.92
2023-02-22T21:14:44.436Z,13.94
2023-02-22T21:17:12.812Z,13.94
2023-02-22T21:19:41.157Z,13.98
2023-02-22T21:22:10.186Z,14.05
2023-02-22T21:24:38.235Z,13.85
2023-02-22T21:27:07.143Z,13.90
2023-02-22T21:29:35.755Z,13.58
2023-02-22T21:32:04.403Z,13.60
2023-02-22T21:34:32.410Z,13.53
2023-02-22T21:37:00.636Z,13.39
2023-02-22T21:39:29.239Z,13.28
2023-02-22T21:42:01.254Z,13.26
2023-02-22T21:44:29.891Z,13.35
2023-02-22T21:46:58.301Z,13.25
2023-02-22T21:49:26.192Z,13.31
2023-02-22T21:51:54.688Z,13.19
2023-02-22T21:54:23.418Z,13.20
2023-02-22T21:56:52.323Z,13.11
2023-02-22T21:59:23.617Z,13.07
2023-02-22T22:01:56.208Z,13.05
2023-02-22T22:04:30.762Z,12.96
2023-02-22T22:07:00.893Z,12.92
2023-02-22T22:09:33.527Z,12.90
2023-02-22T22:12:05.505Z,13.30
2023-02-22T22:14:34.766Z,13.36
2023-02-22T22:17:07.212Z,13.27
2023-02-22T22:19:39.541Z,12.91
2023-02-22T22:22:09.722Z,13.11
2023-02-22T22:24:38.162Z,13.09
2023-02-22T22:27:09.960Z,13.15
2023-02-22T22:29:37.812Z,13.06
2023-02-22T22:32:06.908Z,13.13
2023-02-22T22:34:35.181Z,13.01
2023-02-22T22:37:03.735Z,13.23
2023-02-22T22:39:31.764Z,13.16
2023-02-22T22:42:00.007Z,13.05
2023-02-22T22:44:33.046Z,13.15
2023-02-22T22:47:01.427Z,12.97
2023-02-22T22:49:31.686Z,13.09
2023-02-22T22:51:59.884Z,13.29
2023-02-22T22:54:27.786Z,13.20
2023-02-22T22:56:55.989Z,13.18
2023-02-22T22:59:24.010Z,13.19
2023-02-22T23:01:52.540Z,13.27
2023-02-22T23:04:21.830Z,13.41
2023-02-22T23:06:52.097Z,13.32
2023-02-22T23:09:22.849Z,13.13
2023-02-22T23:11:54.149Z,12.92
2023-02-22T23:14:25.269Z,13.11
2023-02-22T23:17:04.448Z,13.14
2023-02-22T23:19:34.995Z,13.19
2023-02-22T23:22:08.623Z,12.94
2023-02-22T23:24:37.436Z,13.20
2023-02-22T23:27:07.772Z,13.17
2023-02-22T23:29:41.391Z,13.25
2023-02-22T23:32:09.767Z,12.95
2023-02-22T23:34:41.407Z,13.18
2023-02-22T23:37:10.933Z,13.06
2023-02-22T23:39:39.040Z,13.25
2023-02-22T23:42:10.211Z,13.04
2023-02-22T23:44:40.020Z,13.25
2023-02-22T23:47:09.854Z,13.08
2023-02-22T23:49:38.878Z,13.04
2023-02-22T23:52:09.227Z,13.04
2023-02-22T23:54:44.102Z,12.93
2023-02-22T23:57:12.498Z,12.76
2023-02-22T23:59:40.689Z,12.92
